sensor_id;sensor_type;location;lat;lon;timestamp;P1;durP1;ratioP1;P2;durP2;ratioP2
77304;SDS011;66364;52.622;7.746;2022-12-26T00:00:35;35.50;;;21.45;;
77304;SDS011;66364;52.622;7.746;2022-12-26T00:02:36;35.28;;;21.37;;
77304;SDS011;66364;52.622;7.746;2022-12-26T00:04:37;36.55;;;21.87;;
77304;SDS011;66364;52.622;7.746;2022-12-26T00:06:38;35.17;;;21.53;;
77304;SDS011;66364;52.622;7.746;2022-12-26T00:08:38;29.90;;;19.80;;
77304;SDS011;66364;52.622;7.746;2022-12-26T00:10:41;33.45;;;20.10;;
77304;SDS011;66364;52.622;7.746;2022-12-26T00:12:41;29.80;;;18.92;;
77304;SDS011;66364;52.622;7.746;2022-12-26T00:14:42;27.27;;;18.03;;
77304;SDS011;66364;52.622;7.746;2022-12-26T00:16:43;25.53;;;17.00;;
77304;SDS011;66364;52.622;7.746;2022-12-26T00:18:45;25.02;;;17.00;;
77304;SDS011;66364;52.622;7.746;2022-12-26T00:20:47;23.42;;;16.35;;
77304;SDS011;66364;52.622;7.746;2022-12-26T00:22:48;21.27;;;15.65;;
77304;SDS011;66364;52.622;7.746;2022-12-26T00:24:48;23.40;;;17.20;;
77304;SDS011;66364;52.622;7.746;2022-12-26T00:26:50;16.37;;;13.00;;
77304;SDS011;66364;52.622;7.746;2022-12-26T00:28:51;22.02;;;17.17;;
77304;SDS011;66364;52.622;7.746;2022-12-26T00:30:53;21.60;;;15.03;;
77304;SDS011;66364;52.622;7.746;2022-12-26T00:32:54;20.90;;;15.00;;
77304;SDS011;66364;52.622;7.746;2022-12-26T00:34:55;18.87;;;13.60;;
77304;SDS011;66364;52.622;7.746;2022-12-26T00:37:01;17.20;;;13.03;;
77304;SDS011;66364;52.622;7.746;2022-12-26T00:39:02;19.70;;;15.08;;
77304;SDS011;66364;52.622;7.746;2022-12-26T00:41:03;17.73;;;13.55;;
77304;SDS011;66364;52.622;7.746;2022-12-26T00:43:05;22.73;;;16.07;;
77304;SDS011;66364;52.622;7.746;2022-12-26T00:45:06;17.33;;;14.60;;
77304;SDS011;66364;52.622;7.746;2022-12-26T00:47:07;19.75;;;15.13;;
77304;SDS011;66364;52.622;7.746;2022-12-26T00:49:07;20.00;;;14.57;;
77304;SDS011;66364;52.622;7.746;2022-12-26T00:51:08;18.87;;;14.13;;
77304;SDS011;66364;52.622;7.746;2022-12-26T00:53:09;22.10;;;16.00;;
77304;SDS011;66364;52.622;7.746;2022-12-26T00:55:10;19.53;;;14.53;;
77304;SDS011;66364;52.622;7.746;2022-12-26T00:57:10;19.37;;;13.97;;
77304;SDS011;66364;52.622;7.746;2022-12-26T00:59:11;19.80;;;14.87;;
77304;SDS011;66364;52.622;7.746;2022-12-26T01:01:14;15.50;;;12.93;;
77304;SDS011;66364;52.622;7.746;2022-12-26T01:03:17;17.45;;;14.07;;
77304;SDS011;66364;52.622;7.746;2022-12-26T01:05:18;18.50;;;13.85;;
77304;SDS011;66364;52.622;7.746;2022-12-26T01:07:20;15.13;;;12.80;;
77304;SDS011;66364;52.622;7.746;2022-12-26T01:09:21;17.45;;;14.07;;
77304;SDS011;66364;52.622;7.746;2022-12-26T01:11:21;17.27;;;14.80;;
77304;SDS011;66364;52.622;7.746;2022-12-26T01:13:22;22.50;;;14.17;;
77304;SDS011;66364;52.622;7.746;2022-12-26T01:15:23;17.37;;;13.37;;
77304;SDS011;66364;52.622;7.746;2022-12-26T01:17:24;16.97;;;14.17;;
77304;SDS011;66364;52.622;7.746;2022-12-26T01:19:32;18.90;;;15.38;;
77304;SDS011;66364;52.622;7.746;2022-12-26T01:21:33;17.07;;;15.10;;
77304;SDS011;66364;52.622;7.746;2022-12-26T01:23:34;16.50;;;13.63;;
77304;SDS011;66364;52.622;7.746;2022-12-26T01:25:35;17.20;;;13.47;;
77304;SDS011;66364;52.622;7.746;2022-12-26T01:27:35;16.70;;;13.97;;
77304;SDS011;66364;52.622;7.746;2022-12-26T01:29:36;19.67;;;14.50;;
77304;SDS011;66364;52.622;7.746;2022-12-26T01:31:38;15.40;;;13.80;;
77304;SDS011;66364;52.622;7.746;2022-12-26T01:33:40;16.42;;;14.58;;
77304;SDS011;66364;52.622;7.746;2022-12-26T01:35:47;18.48;;;14.40;;
77304;SDS011;66364;52.622;7.746;2022-12-26T01:37:50;19.32;;;14.53;;
77304;SDS011;66364;52.622;7.746;2022-12-26T01:39:58;20.40;;;14.90;;
77304;SDS011;66364;52.622;7.746;2022-12-26T01:41:58;18.35;;;15.65;;
77304;SDS011;66364;52.622;7.746;2022-12-26T01:44:00;24.97;;;18.33;;
77304;SDS011;66364;52.622;7.746;2022-12-26T01:46:02;22.48;;;17.32;;
77304;SDS011;66364;52.622;7.746;2022-12-26T01:50:25;25.02;;;18.07;;
77304;SDS011;66364;52.622;7.746;2022-12-26T01:52:37;26.57;;;18.35;;
77304;SDS011;66364;52.622;7.746;2022-12-26T01:58:53;28.95;;;19.48;;
77304;SDS011;66364;52.622;7.746;2022-12-26T02:00:56;30.37;;;21.20;;
77304;SDS011;66364;52.622;7.746;2022-12-26T02:02:56;28.80;;;19.63;;
77304;SDS011;66364;52.622;7.746;2022-12-26T02:04:57;35.23;;;22.77;;
77304;SDS011;66364;52.622;7.746;2022-12-26T02:06:58;34.47;;;23.23;;
77304;SDS011;66364;52.622;7.746;2022-12-26T02:09:01;35.83;;;23.55;;
77304;SDS011;66364;52.622;7.746;2022-12-26T02:11:04;35.83;;;23.10;;
77304;SDS011;66364;52.622;7.746;2022-12-26T02:13:16;32.73;;;21.85;;
77304;SDS011;66364;52.622;7.746;2022-12-26T02:15:18;32.75;;;22.32;;
77304;SDS011;66364;52.622;7.746;2022-12-26T02:17:18;30.27;;;21.60;;
77304;SDS011;66364;52.622;7.746;2022-12-26T02:33:22;33.58;;;23.35;;
77304;SDS011;66364;52.622;7.746;2022-12-26T02:35:32;33.23;;;22.22;;
77304;SDS011;66364;52.622;7.746;2022-12-26T02:37:44;31.33;;;23.38;;
77304;SDS011;66364;52.622;7.746;2022-12-26T02:40:06;33.40;;;23.80;;
77304;SDS011;66364;52.622;7.746;2022-12-26T02:44:34;35.20;;;24.57;;
77304;SDS011;66364;52.622;7.746;2022-12-26T02:46:34;32.00;;;23.57;;
77304;SDS011;66364;52.622;7.746;2022-12-26T02:51:09;38.13;;;24.47;;
77304;SDS011;66364;52.622;7.746;2022-12-26T02:55:19;35.25;;;23.35;;
77304;SDS011;66364;52.622;7.746;2022-12-26T02:57:31;36.28;;;22.75;;
77304;SDS011;66364;52.622;7.746;2022-12-26T03:01:57;33.90;;;22.67;;
77304;SDS011;66364;52.622;7.746;2022-12-26T03:04:00;35.30;;;23.30;;
77304;SDS011;66364;52.622;7.746;2022-12-26T03:06:06;33.78;;;22.00;;
77304;SDS011;66364;52.622;7.746;2022-12-26T03:08:16;39.58;;;23.50;;
77304;SDS011;66364;52.622;7.746;2022-12-26T03:10:18;34.85;;;23.40;;
77304;SDS011;66364;52.622;7.746;2022-12-26T03:14:49;35.70;;;22.73;;
77304;SDS011;66364;52.622;7.746;2022-12-26T03:19:32;40.48;;;23.50;;
77304;SDS011;66364;52.622;7.746;2022-12-26T03:21:38;37.88;;;22.52;;
77304;SDS011;66364;52.622;7.746;2022-12-26T03:23:40;37.20;;;23.05;;
77304;SDS011;66364;52.622;7.746;2022-12-26T03:26:00;38.88;;;24.98;;
77304;SDS011;66364;52.622;7.746;2022-12-26T03:28:03;35.23;;;23.87;;
77304;SDS011;66364;52.622;7.746;2022-12-26T03:30:04;35.63;;;21.70;;
77304;SDS011;66364;52.622;7.746;2022-12-26T03:32:06;37.73;;;22.87;;
77304;SDS011;66364;52.622;7.746;2022-12-26T03:34:09;41.00;;;24.00;;
77304;SDS011;66364;52.622;7.746;2022-12-26T03:36:10;34.23;;;23.17;;
77304;SDS011;66364;52.622;7.746;2022-12-26T03:38:16;34.48;;;22.85;;
77304;SDS011;66364;52.622;7.746;2022-12-26T03:45:07;36.28;;;23.92;;
77304;SDS011;66364;52.622;7.746;2022-12-26T03:49:26;31.27;;;21.70;;
77304;SDS011;66364;52.622;7.746;2022-12-26T03:51:38;29.60;;;20.25;;
77304;SDS011;66364;52.622;7.746;2022-12-26T03:53:49;29.32;;;21.23;;
77304;SDS011;66364;52.622;7.746;2022-12-26T03:56:11;34.45;;;22.75;;
77304;SDS011;66364;52.622;7.746;2022-12-26T04:00:37;30.17;;;19.73;;
77304;SDS011;66364;52.622;7.746;2022-12-26T04:02:42;32.90;;;23.18;;
77304;SDS011;66364;52.622;7.746;2022-12-26T04:04:45;28.27;;;20.40;;
77304;SDS011;66364;52.622;7.746;2022-12-26T04:06:51;32.57;;;20.63;;
77304;SDS011;66364;52.622;7.746;2022-12-26T04:08:57;29.05;;;19.15;;
77304;SDS011;66364;52.622;7.746;2022-12-26T04:11:04;27.93;;;20.43;;
77304;SDS011;66364;52.622;7.746;2022-12-26T04:13:17;25.17;;;19.87;;
77304;SDS011;66364;52.622;7.746;2022-12-26T04:22:17;28.87;;;19.48;;
77304;SDS011;66364;52.622;7.746;2022-12-26T04:24:22;30.15;;;20.90;;
77304;SDS011;66364;52.622;7.746;2022-12-26T04:26:27;23.67;;;16.85;;
77304;SDS011;66364;52.622;7.746;2022-12-26T04:28:39;28.42;;;19.27;;
77304;SDS011;66364;52.622;7.746;2022-12-26T04:30:41;25.40;;;18.32;;
77304;SDS011;66364;52.622;7.746;2022-12-26T04:32:45;28.55;;;19.15;;
77304;SDS011;66364;52.622;7.746;2022-12-26T04:34:52;23.85;;;16.17;;
77304;SDS011;66364;52.622;7.746;2022-12-26T04:36:59;25.32;;;17.12;;
77304;SDS011;66364;52.622;7.746;2022-12-26T04:39:03;27.07;;;18.17;;
77304;SDS011;66364;52.622;7.746;2022-12-26T04:41:06;28.23;;;18.35;;
77304;SDS011;66364;52.622;7.746;2022-12-26T04:43:09;29.12;;;17.85;;
77304;SDS011;66364;52.622;7.746;2022-12-26T04:45:13;27.62;;;17.75;;
77304;SDS011;66364;52.622;7.746;2022-12-26T04:47:14;28.20;;;18.07;;
77304;SDS011;66364;52.622;7.746;2022-12-26T04:49:16;29.07;;;19.15;;
77304;SDS011;66364;52.622;7.746;2022-12-26T04:51:18;26.82;;;17.15;;
77304;SDS011;66364;52.622;7.746;2022-12-26T04:53:25;28.17;;;18.97;;
77304;SDS011;66364;52.622;7.746;2022-12-26T04:55:27;26.60;;;19.55;;
77304;SDS011;66364;52.622;7.746;2022-12-26T04:57:29;29.77;;;18.67;;
77304;SDS011;66364;52.622;7.746;2022-12-26T04:59:29;28.43;;;19.50;;
77304;SDS011;66364;52.622;7.746;2022-12-26T05:01:30;25.08;;;17.77;;
77304;SDS011;66364;52.622;7.746;2022-12-26T05:03:32;29.20;;;19.47;;
77304;SDS011;66364;52.622;7.746;2022-12-26T05:05:34;32.50;;;21.23;;
77304;SDS011;66364;52.622;7.746;2022-12-26T05:07:37;27.32;;;19.00;;
77304;SDS011;66364;52.622;7.746;2022-12-26T05:09:38;26.83;;;19.57;;
77304;SDS011;66364;52.622;7.746;2022-12-26T05:11:38;31.27;;;20.30;;
77304;SDS011;66364;52.622;7.746;2022-12-26T05:13:39;29.57;;;18.93;;
77304;SDS011;66364;52.622;7.746;2022-12-26T05:15:41;32.00;;;21.60;;
77304;SDS011;66364;52.622;7.746;2022-12-26T05:17:41;31.15;;;19.62;;
77304;SDS011;66364;52.622;7.746;2022-12-26T05:19:42;33.30;;;21.23;;
77304;SDS011;66364;52.622;7.746;2022-12-26T05:21:43;31.07;;;20.37;;
77304;SDS011;66364;52.622;7.746;2022-12-26T05:23:49;32.03;;;20.23;;
77304;SDS011;66364;52.622;7.746;2022-12-26T05:25:50;32.95;;;21.90;;
77304;SDS011;66364;52.622;7.746;2022-12-26T05:27:51;31.60;;;21.47;;
77304;SDS011;66364;52.622;7.746;2022-12-26T05:29:52;37.50;;;22.27;;
77304;SDS011;66364;52.622;7.746;2022-12-26T05:31:53;32.28;;;20.55;;
77304;SDS011;66364;52.622;7.746;2022-12-26T05:33:54;32.13;;;21.00;;
77304;SDS011;66364;52.622;7.746;2022-12-26T05:35:54;32.60;;;20.67;;
77304;SDS011;66364;52.622;7.746;2022-12-26T05:37:55;34.80;;;21.73;;
77304;SDS011;66364;52.622;7.746;2022-12-26T05:39:56;36.33;;;23.00;;
77304;SDS011;66364;52.622;7.746;2022-12-26T05:41:56;30.80;;;22.07;;
77304;SDS011;66364;52.622;7.746;2022-12-26T05:43:57;31.53;;;20.67;;
77304;SDS011;66364;52.622;7.746;2022-12-26T05:45:57;35.30;;;21.83;;
77304;SDS011;66364;52.622;7.746;2022-12-26T05:48:02;32.43;;;21.20;;
77304;SDS011;66364;52.622;7.746;2022-12-26T05:50:02;33.50;;;20.92;;
77304;SDS011;66364;52.622;7.746;2022-12-26T05:52:03;32.35;;;20.90;;
77304;SDS011;66364;52.622;7.746;2022-12-26T05:54:03;32.57;;;22.30;;
77304;SDS011;66364;52.622;7.746;2022-12-26T05:56:05;29.90;;;21.10;;
77304;SDS011;66364;52.622;7.746;2022-12-26T05:58:07;35.58;;;21.52;;
77304;SDS011;66364;52.622;7.746;2022-12-26T06:00:08;30.90;;;20.65;;
77304;SDS011;66364;52.622;7.746;2022-12-26T06:02:10;31.87;;;20.45;;
77304;SDS011;66364;52.622;7.746;2022-12-26T06:04:10;30.63;;;20.43;;
77304;SDS011;66364;52.622;7.746;2022-12-26T06:06:11;30.40;;;22.20;;
77304;SDS011;66364;52.622;7.746;2022-12-26T06:08:12;29.65;;;21.40;;
77304;SDS011;66364;52.622;7.746;2022-12-26T06:10:12;28.87;;;19.03;;
77304;SDS011;66364;52.622;7.746;2022-12-26T06:12:13;29.73;;;20.27;;
77304;SDS011;66364;52.622;7.746;2022-12-26T06:14:14;26.47;;;19.00;;
77304;SDS011;66364;52.622;7.746;2022-12-26T06:16:16;25.32;;;17.82;;
77304;SDS011;66364;52.622;7.746;2022-12-26T06:18:18;26.80;;;19.52;;
77304;SDS011;66364;52.622;7.746;2022-12-26T06:20:19;25.00;;;18.20;;
77304;SDS011;66364;52.622;7.746;2022-12-26T06:24:23;23.75;;;17.35;;
77304;SDS011;66364;52.622;7.746;2022-12-26T06:26:24;24.37;;;18.90;;
77304;SDS011;66364;52.622;7.746;2022-12-26T06:28:25;21.57;;;16.57;;
77304;SDS011;66364;52.622;7.746;2022-12-26T06:30:26;26.60;;;18.73;;
77304;SDS011;66364;52.622;7.746;2022-12-26T06:32:26;23.67;;;17.67;;
77304;SDS011;66364;52.622;7.746;2022-12-26T06:34:27;25.47;;;17.67;;
77304;SDS011;66364;52.622;7.746;2022-12-26T06:36:29;21.77;;;17.90;;
77304;SDS011;66364;52.622;7.746;2022-12-26T06:38:29;24.82;;;17.98;;
77304;SDS011;66364;52.622;7.746;2022-12-26T06:40:30;21.00;;;16.77;;
77304;SDS011;66364;52.622;7.746;2022-12-26T06:42:30;23.50;;;16.53;;
77304;SDS011;66364;52.622;7.746;2022-12-26T06:44:31;24.97;;;18.43;;
77304;SDS011;66364;52.622;7.746;2022-12-26T06:46:32;26.17;;;18.63;;
77304;SDS011;66364;52.622;7.746;2022-12-26T06:48:33;26.57;;;18.70;;
77304;SDS011;66364;52.622;7.746;2022-12-26T06:50:36;23.32;;;19.45;;
77304;SDS011;66364;52.622;7.746;2022-12-26T06:52:36;24.63;;;19.10;;
77304;SDS011;66364;52.622;7.746;2022-12-26T06:54:37;26.90;;;19.60;;
77304;SDS011;66364;52.622;7.746;2022-12-26T06:56:38;23.70;;;18.50;;
77304;SDS011;66364;52.622;7.746;2022-12-26T06:58:39;25.30;;;19.13;;
77304;SDS011;66364;52.622;7.746;2022-12-26T07:00:40;26.75;;;17.80;;
77304;SDS011;66364;52.622;7.746;2022-12-26T07:02:43;26.60;;;19.93;;
77304;SDS011;66364;52.622;7.746;2022-12-26T07:04:44;29.05;;;22.00;;
77304;SDS011;66364;52.622;7.746;2022-12-26T07:06:45;26.77;;;18.95;;
77304;SDS011;66364;52.622;7.746;2022-12-26T07:08:46;29.70;;;21.10;;
77304;SDS011;66364;52.622;7.746;2022-12-26T07:10:47;29.13;;;20.50;;
77304;SDS011;66364;52.622;7.746;2022-12-26T07:12:47;28.20;;;20.83;;
77304;SDS011;66364;52.622;7.746;2022-12-26T07:14:48;29.53;;;20.37;;
77304;SDS011;66364;52.622;7.746;2022-12-26T07:16:49;27.40;;;22.43;;
77304;SDS011;66364;52.622;7.746;2022-12-26T07:18:56;33.60;;;21.83;;
77304;SDS011;66364;52.622;7.746;2022-12-26T07:20:57;28.20;;;20.55;;
77304;SDS011;66364;52.622;7.746;2022-12-26T07:22:58;29.07;;;22.87;;
77304;SDS011;66364;52.622;7.746;2022-12-26T07:24:59;29.17;;;21.53;;
77304;SDS011;66364;52.622;7.746;2022-12-26T07:27:00;31.87;;;22.03;;
77304;SDS011;66364;52.622;7.746;2022-12-26T07:29:01;31.02;;;23.25;;
77304;SDS011;66364;52.622;7.746;2022-12-26T07:31:02;28.93;;;22.03;;
77304;SDS011;66364;52.622;7.746;2022-12-26T07:33:05;32.30;;;22.13;;
77304;SDS011;66364;52.622;7.746;2022-12-26T07:35:06;33.15;;;23.65;;
77304;SDS011;66364;52.622;7.746;2022-12-26T07:37:07;35.10;;;22.93;;
77304;SDS011;66364;52.622;7.746;2022-12-26T07:39:10;32.97;;;23.13;;
77304;SDS011;66364;52.622;7.746;2022-12-26T07:41:19;34.50;;;24.45;;
77304;SDS011;66364;52.622;7.746;2022-12-26T07:43:20;33.80;;;25.12;;
77304;SDS011;66364;52.622;7.746;2022-12-26T07:45:22;35.00;;;24.43;;
77304;SDS011;66364;52.622;7.746;2022-12-26T07:47:22;33.50;;;25.10;;
77304;SDS011;66364;52.622;7.746;2022-12-26T07:49:23;35.30;;;24.87;;
77304;SDS011;66364;52.622;7.746;2022-12-26T07:51:24;32.20;;;23.13;;
77304;SDS011;66364;52.622;7.746;2022-12-26T07:53:24;37.70;;;26.33;;
77304;SDS011;66364;52.622;7.746;2022-12-26T07:55:27;34.70;;;25.13;;
77304;SDS011;66364;52.622;7.746;2022-12-26T07:57:28;35.33;;;25.55;;
77304;SDS011;66364;52.622;7.746;2022-12-26T07:59:29;32.55;;;23.57;;
77304;SDS011;66364;52.622;7.746;2022-12-26T08:01:30;32.08;;;24.02;;
77304;SDS011;66364;52.622;7.746;2022-12-26T08:03:32;32.10;;;24.70;;
77304;SDS011;66364;52.622;7.746;2022-12-26T08:05:34;36.25;;;26.25;;
77304;SDS011;66364;52.622;7.746;2022-12-26T08:07:37;32.88;;;24.80;;
77304;SDS011;66364;52.622;7.746;2022-12-26T08:09:44;32.08;;;25.27;;
77304;SDS011;66364;52.622;7.746;2022-12-26T08:11:45;33.60;;;24.17;;
77304;SDS011;66364;52.622;7.746;2022-12-26T08:13:46;31.50;;;22.53;;
77304;SDS011;66364;52.622;7.746;2022-12-26T08:15:46;29.30;;;24.07;;
77304;SDS011;66364;52.622;7.746;2022-12-26T08:17:48;28.27;;;20.73;;
77304;SDS011;66364;52.622;7.746;2022-12-26T08:19:53;30.50;;;22.90;;
77304;SDS011;66364;52.622;7.746;2022-12-26T08:21:53;28.92;;;22.75;;
77304;SDS011;66364;52.622;7.746;2022-12-26T08:23:54;26.43;;;21.57;;
77304;SDS011;66364;52.622;7.746;2022-12-26T08:25:55;23.90;;;19.23;;
77304;SDS011;66364;52.622;7.746;2022-12-26T08:27:57;24.87;;;20.40;;
77304;SDS011;66364;52.622;7.746;2022-12-26T08:29:58;24.65;;;18.87;;
77304;SDS011;66364;52.622;7.746;2022-12-26T08:31:58;25.67;;;21.20;;
77304;SDS011;66364;52.622;7.746;2022-12-26T08:33:59;23.00;;;17.77;;
77304;SDS011;66364;52.622;7.746;2022-12-26T08:36:03;23.77;;;18.37;;
77304;SDS011;66364;52.622;7.746;2022-12-26T08:38:07;23.45;;;19.42;;
77304;SDS011;66364;52.622;7.746;2022-12-26T08:40:08;20.70;;;17.65;;
77304;SDS011;66364;52.622;7.746;2022-12-26T08:42:10;19.07;;;16.45;;
77304;SDS011;66364;52.622;7.746;2022-12-26T08:44:11;20.25;;;17.55;;
77304;SDS011;66364;52.622;7.746;2022-12-26T08:46:11;25.30;;;17.10;;
77304;SDS011;66364;52.622;7.746;2022-12-26T08:48:12;17.10;;;14.93;;
77304;SDS011;66364;52.622;7.746;2022-12-26T08:50:13;17.53;;;15.10;;
77304;SDS011;66364;52.622;7.746;2022-12-26T08:52:15;18.13;;;14.73;;
77304;SDS011;66364;52.622;7.746;2022-12-26T08:54:16;17.92;;;14.65;;
77304;SDS011;66364;52.622;7.746;2022-12-26T08:56:19;19.80;;;13.77;;
77304;SDS011;66364;52.622;7.746;2022-12-26T08:58:21;12.82;;;11.40;;
77304;SDS011;66364;52.622;7.746;2022-12-26T09:00:23;13.77;;;12.30;;
77304;SDS011;66364;52.622;7.746;2022-12-26T09:02:24;13.95;;;12.55;;
77304;SDS011;66364;52.622;7.746;2022-12-26T09:04:25;14.20;;;11.73;;
77304;SDS011;66364;52.622;7.746;2022-12-26T09:06:25;14.30;;;11.27;;
77304;SDS011;66364;52.622;7.746;2022-12-26T09:08:29;13.50;;;10.80;;
77304;SDS011;66364;52.622;7.746;2022-12-26T09:10:30;12.10;;;9.95;;
77304;SDS011;66364;52.622;7.746;2022-12-26T09:12:31;10.50;;;9.40;;
77304;SDS011;66364;52.622;7.746;2022-12-26T09:14:31;12.23;;;9.73;;
77304;SDS011;66364;52.622;7.746;2022-12-26T09:16:33;9.83;;;8.60;;
77304;SDS011;66364;52.622;7.746;2022-12-26T09:18:36;10.88;;;9.40;;
77304;SDS011;66364;52.622;7.746;2022-12-26T09:20:37;10.70;;;9.70;;
77304;SDS011;66364;52.622;7.746;2022-12-26T09:22:37;12.20;;;8.80;;
77304;SDS011;66364;52.622;7.746;2022-12-26T09:24:40;10.67;;;8.03;;
77304;SDS011;66364;52.622;7.746;2022-12-26T09:26:41;9.28;;;8.28;;
77304;SDS011;66364;52.622;7.746;2022-12-26T09:28:43;9.30;;;6.78;;
77304;SDS011;66364;52.622;7.746;2022-12-26T09:30:50;7.78;;;7.03;;
77304;SDS011;66364;52.622;7.746;2022-12-26T09:32:51;8.70;;;7.90;;
77304;SDS011;66364;52.622;7.746;2022-12-26T09:34:52;8.03;;;6.53;;
77304;SDS011;66364;52.622;7.746;2022-12-26T09:36:52;7.50;;;6.83;;
77304;SDS011;66364;52.622;7.746;2022-12-26T09:38:54;6.67;;;6.03;;
77304;SDS011;66364;52.622;7.746;2022-12-26T09:46:05;8.13;;;6.45;;
77304;SDS011;66364;52.622;7.746;2022-12-26T09:52:40;6.70;;;6.05;;
77304;SDS011;66364;52.622;7.746;2022-12-26T09:54:53;9.05;;;6.10;;
77304;SDS011;66364;52.622;7.746;2022-12-26T09:56:50;7.10;;;6.40;;
77304;SDS011;66364;52.622;7.746;2022-12-26T09:58:53;7.03;;;6.30;;
77304;SDS011;66364;52.622;7.746;2022-12-26T10:01:02;7.83;;;7.15;;
77304;SDS011;66364;52.622;7.746;2022-12-26T10:03:14;7.20;;;6.60;;
77304;SDS011;66364;52.622;7.746;2022-12-26T10:05:14;9.40;;;7.10;;
77304;SDS011;66364;52.622;7.746;2022-12-26T10:23:30;15.00;;;11.65;;
77304;SDS011;66364;52.622;7.746;2022-12-26T10:27:47;8.05;;;6.55;;
77304;SDS011;66364;52.622;7.746;2022-12-26T10:29:51;7.20;;;6.50;;
77304;SDS011;66364;52.622;7.746;2022-12-26T10:34:23;6.58;;;5.87;;
77304;SDS011;66364;52.622;7.746;2022-12-26T10:36:31;6.60;;;5.95;;
77304;SDS011;66364;52.622;7.746;2022-12-26T10:38:38;6.53;;;5.92;;
77304;SDS011;66364;52.622;7.746;2022-12-26T10:40:42;6.10;;;5.50;;
77304;SDS011;66364;52.622;7.746;2022-12-26T10:42:51;7.70;;;6.92;;
77304;SDS011;66364;52.622;7.746;2022-12-26T10:44:56;7.08;;;5.42;;
77304;SDS011;66364;52.622;7.746;2022-12-26T10:49:07;6.05;;;5.45;;
77304;SDS011;66364;52.622;7.746;2022-12-26T10:51:10;7.60;;;5.70;;
77304;SDS011;66364;52.622;7.746;2022-12-26T10:53:11;9.40;;;5.95;;
77304;SDS011;66364;52.622;7.746;2022-12-26T10:55:14;8.05;;;5.30;;
77304;SDS011;66364;52.622;7.746;2022-12-26T10:57:18;7.17;;;6.10;;
77304;SDS011;66364;52.622;7.746;2022-12-26T10:59:37;9.05;;;7.15;;
77304;SDS011;66364;52.622;7.746;2022-12-26T11:01:48;9.08;;;6.30;;
77304;SDS011;66364;52.622;7.746;2022-12-26T11:03:53;7.80;;;6.85;;
77304;SDS011;66364;52.622;7.746;2022-12-26T11:05:56;7.78;;;7.08;;
77304;SDS011;66364;52.622;7.746;2022-12-26T11:10:20;10.70;;;8.20;;
77304;SDS011;66364;52.622;7.746;2022-12-26T11:12:59;10.82;;;8.05;;
77304;SDS011;66364;52.622;7.746;2022-12-26T11:14:46;9.80;;;7.33;;
77304;SDS011;66364;52.622;7.746;2022-12-26T11:16:48;7.22;;;6.62;;
77304;SDS011;66364;52.622;7.746;2022-12-26T11:18:49;12.13;;;6.70;;
77304;SDS011;66364;52.622;7.746;2022-12-26T11:20:51;6.60;;;5.95;;
77304;SDS011;66364;52.622;7.746;2022-12-26T11:22:52;6.80;;;5.93;;
77304;SDS011;66364;52.622;7.746;2022-12-26T11:27:21;7.45;;;6.85;;
77304;SDS011;66364;52.622;7.746;2022-12-26T11:29:23;8.33;;;5.75;;
77304;SDS011;66364;52.622;7.746;2022-12-26T11:31:24;8.23;;;5.95;;
77304;SDS011;66364;52.622;7.746;2022-12-26T11:33:26;6.95;;;6.42;;
77304;SDS011;66364;52.622;7.746;2022-12-26T11:35:29;6.62;;;5.87;;
77304;SDS011;66364;52.622;7.746;2022-12-26T11:37:35;10.60;;;5.85;;
77304;SDS011;66364;52.622;7.746;2022-12-26T11:39:36;6.80;;;6.03;;
77304;SDS011;66364;52.622;7.746;2022-12-26T11:41:38;8.83;;;4.95;;
77304;SDS011;66364;52.622;7.746;2022-12-26T11:43:41;7.47;;;6.12;;
77304;SDS011;66364;52.622;7.746;2022-12-26T11:45:48;6.53;;;5.78;;
77304;SDS011;66364;52.622;7.746;2022-12-26T11:47:50;5.87;;;5.25;;
77304;SDS011;66364;52.622;7.746;2022-12-26T11:54:47;7.47;;;3.15;;
77304;SDS011;66364;52.622;7.746;2022-12-26T11:57:14;7.15;;;2.62;;
77304;SDS011;66364;52.622;7.746;2022-12-26T11:59:15;7.00;;;2.75;;
77304;SDS011;66364;52.622;7.746;2022-12-26T12:01:11;5.25;;;2.10;;
77304;SDS011;66364;52.622;7.746;2022-12-26T12:11:17;3.95;;;1.90;;
77304;SDS011;66364;52.622;7.746;2022-12-26T12:15:43;4.40;;;1.35;;
77304;SDS011;66364;52.622;7.746;2022-12-26T12:18:05;8.58;;;2.95;;
77304;SDS011;66364;52.622;7.746;2022-12-26T12:29:52;7.03;;;1.42;;
77304;SDS011;66364;52.622;7.746;2022-12-26T12:41:26;4.72;;;1.30;;
77304;SDS011;66364;52.622;7.746;2022-12-26T12:45:49;8.15;;;1.85;;
77304;SDS011;66364;52.622;7.746;2022-12-26T12:48:12;4.40;;;1.15;;
77304;SDS011;66364;52.622;7.746;2022-12-26T12:50:28;5.47;;;1.20;;
77304;SDS011;66364;52.622;7.746;2022-12-26T13:01:47;5.83;;;1.27;;
77304;SDS011;66364;52.622;7.746;2022-12-26T13:03:59;3.85;;;1.27;;
77304;SDS011;66364;52.622;7.746;2022-12-26T13:08:41;3.22;;;0.95;;
77304;SDS011;66364;52.622;7.746;2022-12-26T13:11:21;9.58;;;1.42;;
77304;SDS011;66364;52.622;7.746;2022-12-26T13:13:29;3.08;;;1.17;;
77304;SDS011;66364;52.622;7.746;2022-12-26T13:15:34;7.33;;;2.05;;
77304;SDS011;66364;52.622;7.746;2022-12-26T13:17:47;4.67;;;1.45;;
77304;SDS011;66364;52.622;7.746;2022-12-26T13:22:38;6.65;;;2.00;;
77304;SDS011;66364;52.622;7.746;2022-12-26T13:24:45;4.53;;;1.50;;
77304;SDS011;66364;52.622;7.746;2022-12-26T13:26:54;3.72;;;1.57;;
77304;SDS011;66364;52.622;7.746;2022-12-26T13:31:12;7.47;;;1.75;;
77304;SDS011;66364;52.622;7.746;2022-12-26T13:33:13;7.90;;;1.90;;
77304;SDS011;66364;52.622;7.746;2022-12-26T13:37:55;6.12;;;2.15;;
77304;SDS011;66364;52.622;7.746;2022-12-26T13:40:00;5.95;;;2.40;;
77304;SDS011;66364;52.622;7.746;2022-12-26T13:47:10;5.85;;;1.62;;
77304;SDS011;66364;52.622;7.746;2022-12-26T13:50:50;6.30;;;1.60;;
77304;SDS011;66364;52.622;7.746;2022-12-26T13:52:56;6.25;;;1.30;;
77304;SDS011;66364;52.622;7.746;2022-12-26T13:57:41;12.53;;;2.85;;
77304;SDS011;66364;52.622;7.746;2022-12-26T14:02:17;5.80;;;1.75;;
77304;SDS011;66364;52.622;7.746;2022-12-26T14:07:06;7.17;;;2.87;;
77304;SDS011;66364;52.622;7.746;2022-12-26T14:17:40;9.93;;;2.37;;
77304;SDS011;66364;52.622;7.746;2022-12-26T14:26:59;7.75;;;1.92;;
77304;SDS011;66364;52.622;7.746;2022-12-26T14:33:38;12.43;;;3.17;;
77304;SDS011;66364;52.622;7.746;2022-12-26T14:38:44;16.12;;;2.30;;
77304;SDS011;66364;52.622;7.746;2022-12-26T14:45:55;13.88;;;2.67;;
77304;SDS011;66364;52.622;7.746;2022-12-26T14:50:55;11.60;;;2.75;;
77304;SDS011;66364;52.622;7.746;2022-12-26T14:52:54;6.75;;;2.47;;
77304;SDS011;66364;52.622;7.746;2022-12-26T14:57:39;14.98;;;4.22;;
77304;SDS011;66364;52.622;7.746;2022-12-26T15:00:01;12.75;;;2.70;;
77304;SDS011;66364;52.622;7.746;2022-12-26T15:01:58;10.63;;;3.37;;
77304;SDS011;66364;52.622;7.746;2022-12-26T15:04:19;6.53;;;2.20;;
77304;SDS011;66364;52.622;7.746;2022-12-26T15:09:09;7.78;;;2.20;;
77304;SDS011;66364;52.622;7.746;2022-12-26T15:20:49;9.43;;;2.50;;
77304;SDS011;66364;52.622;7.746;2022-12-26T15:39:00;13.40;;;2.67;;
77304;SDS011;66364;52.622;7.746;2022-12-26T15:41:12;11.85;;;2.58;;
77304;SDS011;66364;52.622;7.746;2022-12-26T15:45:23;13.43;;;2.77;;
77304;SDS011;66364;52.622;7.746;2022-12-26T15:48:21;7.62;;;3.02;;
77304;SDS011;66364;52.622;7.746;2022-12-26T15:55:22;11.35;;;3.72;;
77304;SDS011;66364;52.622;7.746;2022-12-26T15:59:57;8.90;;;2.60;;
77304;SDS011;66364;52.622;7.746;2022-12-26T16:02:13;10.65;;;2.87;;